sensor_id;sensor_type;location;lat;lon;timestamp;P1;durP1;ratioP1;P2;durP2;ratioP2
75216;SDS011;63800;51.972;5.682;2023-05-10T00:00:11;47.53;;;24.42;;
75216;SDS011;63800;51.972;5.682;2023-05-10T00:02:37;48.00;;;25.88;;
75216;SDS011;63800;51.972;5.682;2023-05-10T00:05:02;50.50;;;26.25;;
75216;SDS011;63800;51.972;5.682;2023-05-10T00:07:28;53.47;;;26.02;;
75216;SDS011;63800;51.972;5.682;2023-05-10T00:09:54;49.38;;;26.25;;
75216;SDS011;63800;51.972;5.682;2023-05-10T00:12:19;52.97;;;26.08;;
75216;SDS011;63800;51.972;5.682;2023-05-10T00:14:45;49.35;;;25.52;;
75216;SDS011;63800;51.972;5.682;2023-05-10T00:17:10;52.33;;;26.90;;
75216;SDS011;63800;51.972;5.682;2023-05-10T00:19:36;54.65;;;26.45;;
75216;SDS011;63800;51.972;5.682;2023-05-10T00:22:01;52.20;;;26.13;;
75216;SDS011;63800;51.972;5.682;2023-05-10T00:24:26;53.55;;;27.10;;
75216;SDS011;63800;51.972;5.682;2023-05-10T00:26:52;50.70;;;24.65;;
75216;SDS011;63800;51.972;5.682;2023-05-10T00:29:17;56.72;;;28.30;;
75216;SDS011;63800;51.972;5.682;2023-05-10T00:31:43;52.70;;;26.55;;
75216;SDS011;63800;51.972;5.682;2023-05-10T00:34:08;56.60;;;28.40;;
75216;SDS011;63800;51.972;5.682;2023-05-10T00:36:34;57.33;;;25.95;;
75216;SDS011;63800;51.972;5.682;2023-05-10T00:38:59;54.95;;;27.38;;
75216;SDS011;63800;51.972;5.682;2023-05-10T00:41:25;55.72;;;26.20;;
75216;SDS011;63800;51.972;5.682;2023-05-10T00:43:51;56.60;;;26.90;;
75216;SDS011;63800;51.972;5.682;2023-05-10T00:46:16;53.83;;;26.13;;
75216;SDS011;63800;51.972;5.682;2023-05-10T00:48:42;52.97;;;25.88;;
75216;SDS011;63800;51.972;5.682;2023-05-10T00:51:08;53.25;;;25.80;;
75216;SDS011;63800;51.972;5.682;2023-05-10T00:53:34;57.58;;;26.75;;
75216;SDS011;63800;51.972;5.682;2023-05-10T00:56:00;52.97;;;26.73;;
75216;SDS011;63800;51.972;5.682;2023-05-10T00:58:26;57.88;;;26.52;;
75216;SDS011;63800;51.972;5.682;2023-05-10T01:00:54;57.50;;;26.88;;
75216;SDS011;63800;51.972;5.682;2023-05-10T01:03:21;54.85;;;26.42;;
75216;SDS011;63800;51.972;5.682;2023-05-10T01:05:47;56.55;;;26.52;;
75216;SDS011;63800;51.972;5.682;2023-05-10T01:08:12;58.42;;;28.27;;
75216;SDS011;63800;51.972;5.682;2023-05-10T01:10:38;58.13;;;26.13;;
75216;SDS011;63800;51.972;5.682;2023-05-10T01:13:04;53.92;;;24.63;;
75216;SDS011;63800;51.972;5.682;2023-05-10T01:15:29;54.85;;;24.15;;
75216;SDS011;63800;51.972;5.682;2023-05-10T01:17:56;53.50;;;24.75;;
75216;SDS011;63800;51.972;5.682;2023-05-10T01:20:21;51.70;;;25.40;;
75216;SDS011;63800;51.972;5.682;2023-05-10T01:39:24;58.83;;;24.98;;
75216;SDS011;63800;51.972;5.682;2023-05-10T01:47:35;59.35;;;25.20;;
75216;SDS011;63800;51.972;5.682;2023-05-10T01:50:06;60.13;;;25.45;;
75216;SDS011;63800;51.972;5.682;2023-05-10T01:52:41;60.40;;;25.67;;
75216;SDS011;63800;51.972;5.682;2023-05-10T01:55:09;63.90;;;26.50;;
75216;SDS011;63800;51.972;5.682;2023-05-10T01:57:38;62.80;;;26.95;;
75216;SDS011;63800;51.972;5.682;2023-05-10T02:00:07;61.38;;;25.45;;
75216;SDS011;63800;51.972;5.682;2023-05-10T02:02:37;73.25;;;26.75;;
75216;SDS011;63800;51.972;5.682;2023-05-10T02:05:07;60.45;;;25.33;;
75216;SDS011;63800;51.972;5.682;2023-05-10T02:07:35;60.13;;;26.17;;
75216;SDS011;63800;51.972;5.682;2023-05-10T02:10:01;62.70;;;25.95;;
75216;SDS011;63800;51.972;5.682;2023-05-10T02:12:29;63.60;;;28.20;;
75216;SDS011;63800;51.972;5.682;2023-05-10T02:14:56;62.25;;;25.90;;
75216;SDS011;63800;51.972;5.682;2023-05-10T02:17:24;65.55;;;27.65;;
75216;SDS011;63800;51.972;5.682;2023-05-10T02:19:50;67.47;;;27.50;;
75216;SDS011;63800;51.972;5.682;2023-05-10T02:22:18;66.72;;;27.05;;
75216;SDS011;63800;51.972;5.682;2023-05-10T02:24:45;68.22;;;27.85;;
75216;SDS011;63800;51.972;5.682;2023-05-10T02:27:12;66.97;;;28.00;;
75216;SDS011;63800;51.972;5.682;2023-05-10T02:29:39;66.93;;;28.75;;
75216;SDS011;63800;51.972;5.682;2023-05-10T02:32:05;64.57;;;27.10;;
75216;SDS011;63800;51.972;5.682;2023-05-10T02:34:31;59.40;;;24.85;;
75216;SDS011;63800;51.972;5.682;2023-05-10T02:36:57;63.50;;;27.17;;
75216;SDS011;63800;51.972;5.682;2023-05-10T02:39:24;60.95;;;26.02;;
75216;SDS011;63800;51.972;5.682;2023-05-10T02:41:53;66.20;;;26.73;;
75216;SDS011;63800;51.972;5.682;2023-05-10T02:44:20;67.65;;;29.25;;
75216;SDS011;63800;51.972;5.682;2023-05-10T02:46:48;65.72;;;29.52;;
75216;SDS011;63800;51.972;5.682;2023-05-10T02:49:13;70.25;;;29.45;;
75216;SDS011;63800;51.972;5.682;2023-05-10T02:51:41;68.28;;;28.63;;
75216;SDS011;63800;51.972;5.682;2023-05-10T02:54:24;69.90;;;27.40;;
75216;SDS011;63800;51.972;5.682;2023-05-10T02:56:55;67.10;;;27.90;;
75216;SDS011;63800;51.972;5.682;2023-05-10T02:59:22;64.55;;;26.70;;
75216;SDS011;63800;51.972;5.682;2023-05-10T03:01:47;63.13;;;26.83;;
75216;SDS011;63800;51.972;5.682;2023-05-10T03:04:13;62.17;;;27.35;;
75216;SDS011;63800;51.972;5.682;2023-05-10T03:06:39;65.63;;;27.52;;
75216;SDS011;63800;51.972;5.682;2023-05-10T03:09:04;66.75;;;28.08;;
75216;SDS011;63800;51.972;5.682;2023-05-10T03:14:10;61.78;;;27.10;;
75216;SDS011;63800;51.972;5.682;2023-05-10T03:16:46;65.10;;;27.90;;
75216;SDS011;63800;51.972;5.682;2023-05-10T03:19:17;63.08;;;27.52;;
75216;SDS011;63800;51.972;5.682;2023-05-10T03:21:47;65.53;;;28.70;;
75216;SDS011;63800;51.972;5.682;2023-05-10T03:24:16;67.60;;;28.50;;
75216;SDS011;63800;51.972;5.682;2023-05-10T03:26:43;70.00;;;28.77;;
75216;SDS011;63800;51.972;5.682;2023-05-10T03:29:11;68.13;;;28.52;;
75216;SDS011;63800;51.972;5.682;2023-05-10T03:31:38;66.13;;;30.05;;
75216;SDS011;63800;51.972;5.682;2023-05-10T03:34:04;63.45;;;28.75;;
75216;SDS011;63800;51.972;5.682;2023-05-10T03:36:30;62.92;;;28.77;;
75216;SDS011;63800;51.972;5.682;2023-05-10T03:38:55;62.90;;;25.52;;
75216;SDS011;63800;51.972;5.682;2023-05-10T03:41:21;68.80;;;28.27;;
75216;SDS011;63800;51.972;5.682;2023-05-10T03:43:46;64.85;;;27.30;;
75216;SDS011;63800;51.972;5.682;2023-05-10T03:46:11;63.75;;;27.02;;
75216;SDS011;63800;51.972;5.682;2023-05-10T03:48:37;59.92;;;26.15;;
75216;SDS011;63800;51.972;5.682;2023-05-10T03:51:02;60.47;;;25.40;;
75216;SDS011;63800;51.972;5.682;2023-05-10T03:53:28;62.35;;;27.13;;
75216;SDS011;63800;51.972;5.682;2023-05-10T03:55:53;56.72;;;25.17;;
75216;SDS011;63800;51.972;5.682;2023-05-10T03:58:19;63.53;;;26.73;;
75216;SDS011;63800;51.972;5.682;2023-05-10T04:00:45;60.08;;;27.05;;
75216;SDS011;63800;51.972;5.682;2023-05-10T04:03:13;62.20;;;25.65;;
75216;SDS011;63800;51.972;5.682;2023-05-10T04:05:39;63.58;;;26.05;;
75216;SDS011;63800;51.972;5.682;2023-05-10T04:08:05;60.53;;;25.95;;
75216;SDS011;63800;51.972;5.682;2023-05-10T04:10:31;56.08;;;25.50;;
75216;SDS011;63800;51.972;5.682;2023-05-10T04:12:57;59.55;;;26.98;;
75216;SDS011;63800;51.972;5.682;2023-05-10T04:15:22;67.13;;;28.27;;
75216;SDS011;63800;51.972;5.682;2023-05-10T04:17:48;59.92;;;26.52;;
75216;SDS011;63800;51.972;5.682;2023-05-10T04:20:13;65.40;;;28.50;;
75216;SDS011;63800;51.972;5.682;2023-05-10T04:22:39;62.63;;;27.85;;
75216;SDS011;63800;51.972;5.682;2023-05-10T04:25:05;64.88;;;27.65;;
75216;SDS011;63800;51.972;5.682;2023-05-10T04:27:31;57.60;;;25.98;;
75216;SDS011;63800;51.972;5.682;2023-05-10T04:29:57;62.17;;;26.33;;
75216;SDS011;63800;51.972;5.682;2023-05-10T04:32:22;56.42;;;25.27;;
75216;SDS011;63800;51.972;5.682;2023-05-10T04:34:48;58.50;;;24.58;;
75216;SDS011;63800;51.972;5.682;2023-05-10T04:37:14;50.58;;;23.02;;
75216;SDS011;63800;51.972;5.682;2023-05-10T04:39:39;58.72;;;24.83;;
75216;SDS011;63800;51.972;5.682;2023-05-10T04:42:05;55.30;;;22.95;;
75216;SDS011;63800;51.972;5.682;2023-05-10T04:44:31;53.65;;;23.33;;
75216;SDS011;63800;51.972;5.682;2023-05-10T04:46:57;50.97;;;22.50;;
75216;SDS011;63800;51.972;5.682;2023-05-10T04:49:22;48.45;;;22.20;;
75216;SDS011;63800;51.972;5.682;2023-05-10T04:51:48;48.78;;;22.90;;
75216;SDS011;63800;51.972;5.682;2023-05-10T04:54:13;46.15;;;20.85;;
75216;SDS011;63800;51.972;5.682;2023-05-10T04:56:39;47.97;;;21.70;;
75216;SDS011;63800;51.972;5.682;2023-05-10T04:59:05;52.22;;;22.60;;
75216;SDS011;63800;51.972;5.682;2023-05-10T05:01:31;54.35;;;24.15;;
75216;SDS011;63800;51.972;5.682;2023-05-10T05:03:56;51.47;;;22.95;;
75216;SDS011;63800;51.972;5.682;2023-05-10T05:06:22;54.38;;;23.20;;
75216;SDS011;63800;51.972;5.682;2023-05-10T05:08:49;48.95;;;22.63;;
75216;SDS011;63800;51.972;5.682;2023-05-10T05:11:15;56.75;;;24.65;;
75216;SDS011;63800;51.972;5.682;2023-05-10T05:13:40;52.20;;;22.88;;
75216;SDS011;63800;51.972;5.682;2023-05-10T05:16:06;54.72;;;23.30;;
75216;SDS011;63800;51.972;5.682;2023-05-10T05:18:31;57.00;;;24.42;;
75216;SDS011;63800;51.972;5.682;2023-05-10T05:20:57;58.38;;;25.20;;
75216;SDS011;63800;51.972;5.682;2023-05-10T05:23:22;55.47;;;24.52;;
75216;SDS011;63800;51.972;5.682;2023-05-10T05:25:51;53.83;;;23.80;;
75216;SDS011;63800;51.972;5.682;2023-05-10T05:28:17;54.28;;;24.17;;
75216;SDS011;63800;51.972;5.682;2023-05-10T05:30:43;52.00;;;22.92;;
75216;SDS011;63800;51.972;5.682;2023-05-10T05:33:08;55.10;;;23.50;;
75216;SDS011;63800;51.972;5.682;2023-05-10T05:35:33;57.10;;;24.52;;
75216;SDS011;63800;51.972;5.682;2023-05-10T05:37:59;55.30;;;24.42;;
75216;SDS011;63800;51.972;5.682;2023-05-10T05:40:24;55.78;;;24.50;;
75216;SDS011;63800;51.972;5.682;2023-05-10T05:42:50;59.42;;;24.50;;
75216;SDS011;63800;51.972;5.682;2023-05-10T05:45:15;60.33;;;24.10;;
75216;SDS011;63800;51.972;5.682;2023-05-10T05:47:41;64.07;;;26.13;;
75216;SDS011;63800;51.972;5.682;2023-05-10T05:50:06;66.43;;;25.15;;
75216;SDS011;63800;51.972;5.682;2023-05-10T05:52:33;62.83;;;25.45;;
75216;SDS011;63800;51.972;5.682;2023-05-10T05:54:58;60.05;;;26.48;;
75216;SDS011;63800;51.972;5.682;2023-05-10T05:57:24;67.78;;;25.73;;
75216;SDS011;63800;51.972;5.682;2023-05-10T05:59:51;64.90;;;25.52;;
75216;SDS011;63800;51.972;5.682;2023-05-10T06:02:17;67.82;;;27.00;;
75216;SDS011;63800;51.972;5.682;2023-05-10T06:04:42;66.10;;;27.35;;
75216;SDS011;63800;51.972;5.682;2023-05-10T06:07:08;62.65;;;27.08;;
75216;SDS011;63800;51.972;5.682;2023-05-10T06:09:33;63.83;;;26.48;;
75216;SDS011;63800;51.972;5.682;2023-05-10T06:11:59;59.47;;;26.02;;
75216;SDS011;63800;51.972;5.682;2023-05-10T06:14:24;67.63;;;27.33;;
75216;SDS011;63800;51.972;5.682;2023-05-10T06:16:50;68.22;;;27.27;;
75216;SDS011;63800;51.972;5.682;2023-05-10T06:19:15;65.60;;;26.33;;
75216;SDS011;63800;51.972;5.682;2023-05-10T06:21:40;65.88;;;29.45;;
75216;SDS011;63800;51.972;5.682;2023-05-10T06:24:06;63.38;;;27.35;;
75216;SDS011;63800;51.972;5.682;2023-05-10T06:26:31;67.72;;;28.23;;
75216;SDS011;63800;51.972;5.682;2023-05-10T06:28:57;65.78;;;27.58;;
75216;SDS011;63800;51.972;5.682;2023-05-10T06:31:23;72.03;;;30.05;;
75216;SDS011;63800;51.972;5.682;2023-05-10T06:33:48;64.85;;;28.77;;
75216;SDS011;63800;51.972;5.682;2023-05-10T06:36:14;70.65;;;30.15;;
75216;SDS011;63800;51.972;5.682;2023-05-10T06:38:39;83.35;;;33.10;;
75216;SDS011;63800;51.972;5.682;2023-05-10T06:41:05;75.28;;;31.58;;
75216;SDS011;63800;51.972;5.682;2023-05-10T06:43:30;80.60;;;32.15;;
75216;SDS011;63800;51.972;5.682;2023-05-10T06:45:56;90.80;;;33.40;;
75216;SDS011;63800;51.972;5.682;2023-05-10T06:48:22;89.90;;;34.97;;
75216;SDS011;63800;51.972;5.682;2023-05-10T06:50:47;92.07;;;33.95;;
75216;SDS011;63800;51.972;5.682;2023-05-10T06:53:13;91.95;;;35.85;;
75216;SDS011;63800;51.972;5.682;2023-05-10T06:55:39;88.60;;;33.88;;
75216;SDS011;63800;51.972;5.682;2023-05-10T06:58:04;86.43;;;34.03;;
75216;SDS011;63800;51.972;5.682;2023-05-10T07:00:30;77.25;;;31.65;;
75216;SDS011;63800;51.972;5.682;2023-05-10T07:02:55;77.45;;;30.42;;
75216;SDS011;63800;51.972;5.682;2023-05-10T07:05:21;75.78;;;28.98;;
75216;SDS011;63800;51.972;5.682;2023-05-10T07:07:46;74.38;;;30.73;;
75216;SDS011;63800;51.972;5.682;2023-05-10T07:10:12;73.85;;;29.13;;
75216;SDS011;63800;51.972;5.682;2023-05-10T07:12:38;73.53;;;30.77;;
75216;SDS011;63800;51.972;5.682;2023-05-10T07:15:04;78.28;;;31.27;;
75216;SDS011;63800;51.972;5.682;2023-05-10T07:17:29;72.13;;;29.42;;
75216;SDS011;63800;51.972;5.682;2023-05-10T07:19:55;79.03;;;31.73;;
75216;SDS011;63800;51.972;5.682;2023-05-10T07:22:20;69.95;;;30.45;;
75216;SDS011;63800;51.972;5.682;2023-05-10T07:24:46;74.10;;;30.33;;
75216;SDS011;63800;51.972;5.682;2023-05-10T07:27:11;81.43;;;30.60;;
75216;SDS011;63800;51.972;5.682;2023-05-10T07:29:38;74.28;;;30.02;;
75216;SDS011;63800;51.972;5.682;2023-05-10T07:32:03;74.00;;;28.85;;
75216;SDS011;63800;51.972;5.682;2023-05-10T07:34:29;67.55;;;28.80;;
75216;SDS011;63800;51.972;5.682;2023-05-10T07:36:57;75.82;;;30.17;;
75216;SDS011;63800;51.972;5.682;2023-05-10T07:39:23;69.15;;;28.67;;
75216;SDS011;63800;51.972;5.682;2023-05-10T07:41:49;68.63;;;29.20;;
75216;SDS011;63800;51.972;5.682;2023-05-10T07:44:15;75.88;;;29.52;;
75216;SDS011;63800;51.972;5.682;2023-05-10T07:46:43;64.90;;;26.45;;
75216;SDS011;63800;51.972;5.682;2023-05-10T07:49:08;59.25;;;25.65;;
75216;SDS011;63800;51.972;5.682;2023-05-10T07:51:34;59.75;;;25.02;;
75216;SDS011;63800;51.972;5.682;2023-05-10T07:53:59;56.30;;;24.80;;
75216;SDS011;63800;51.972;5.682;2023-05-10T07:56:28;49.92;;;23.17;;
75216;SDS011;63800;51.972;5.682;2023-05-10T07:58:58;55.20;;;23.58;;
75216;SDS011;63800;51.972;5.682;2023-05-10T08:01:24;47.63;;;22.52;;
75216;SDS011;63800;51.972;5.682;2023-05-10T08:03:51;37.90;;;17.67;;
75216;SDS011;63800;51.972;5.682;2023-05-10T08:06:18;38.15;;;17.88;;
75216;SDS011;63800;51.972;5.682;2023-05-10T08:08:45;35.55;;;16.23;;
75216;SDS011;63800;51.972;5.682;2023-05-10T08:11:14;36.05;;;16.15;;
75216;SDS011;63800;51.972;5.682;2023-05-10T08:13:40;37.22;;;16.83;;
75216;SDS011;63800;51.972;5.682;2023-05-10T08:16:06;35.60;;;16.42;;
75216;SDS011;63800;51.972;5.682;2023-05-10T08:18:32;34.50;;;16.13;;
75216;SDS011;63800;51.972;5.682;2023-05-10T08:20:57;33.30;;;15.73;;
75216;SDS011;63800;51.972;5.682;2023-05-10T08:23:22;31.73;;;14.40;;
75216;SDS011;63800;51.972;5.682;2023-05-10T08:25:48;30.95;;;13.95;;
75216;SDS011;63800;51.972;5.682;2023-05-10T08:28:13;29.50;;;13.70;;
75216;SDS011;63800;51.972;5.682;2023-05-10T08:30:39;27.08;;;12.07;;
75216;SDS011;63800;51.972;5.682;2023-05-10T08:33:04;19.42;;;10.32;;
75216;SDS011;63800;51.972;5.682;2023-05-10T08:35:30;19.50;;;10.45;;
75216;SDS011;63800;51.972;5.682;2023-05-10T08:37:55;20.23;;;9.60;;
75216;SDS011;63800;51.972;5.682;2023-05-10T08:40:21;15.80;;;8.93;;
75216;SDS011;63800;51.972;5.682;2023-05-10T08:43:10;17.75;;;9.20;;
75216;SDS011;63800;51.972;5.682;2023-05-10T08:45:39;16.50;;;9.02;;
75216;SDS011;63800;51.972;5.682;2023-05-10T08:48:06;15.45;;;9.23;;
75216;SDS011;63800;51.972;5.682;2023-05-10T08:50:35;17.15;;;9.75;;
75216;SDS011;63800;51.972;5.682;2023-05-10T08:53:03;16.02;;;8.80;;
75216;SDS011;63800;51.972;5.682;2023-05-10T08:55:30;17.02;;;9.20;;
75216;SDS011;63800;51.972;5.682;2023-05-10T08:57:57;16.55;;;9.30;;
75216;SDS011;63800;51.972;5.682;2023-05-10T09:00:23;14.50;;;8.05;;
75216;SDS011;63800;51.972;5.682;2023-05-10T09:02:49;18.98;;;8.93;;
75216;SDS011;63800;51.972;5.682;2023-05-10T09:05:15;16.35;;;8.70;;
75216;SDS011;63800;51.972;5.682;2023-05-10T09:07:41;15.15;;;8.43;;
75216;SDS011;63800;51.972;5.682;2023-05-10T09:10:07;13.90;;;8.23;;
75216;SDS011;63800;51.972;5.682;2023-05-10T09:12:33;14.82;;;8.57;;
75216;SDS011;63800;51.972;5.682;2023-05-10T09:14:59;15.48;;;8.25;;
75216;SDS011;63800;51.972;5.682;2023-05-10T09:17:25;17.10;;;8.13;;
75216;SDS011;63800;51.972;5.682;2023-05-10T09:20:01;13.27;;;8.35;;
75216;SDS011;63800;51.972;5.682;2023-05-10T09:22:29;15.55;;;8.43;;
75216;SDS011;63800;51.972;5.682;2023-05-10T09:27:30;16.15;;;8.75;;
75216;SDS011;63800;51.972;5.682;2023-05-10T09:29:56;17.35;;;8.30;;
75216;SDS011;63800;51.972;5.682;2023-05-10T09:32:22;17.52;;;8.82;;
75216;SDS011;63800;51.972;5.682;2023-05-10T09:35:09;15.95;;;8.35;;
75216;SDS011;63800;51.972;5.682;2023-05-10T09:37:39;15.02;;;8.23;;
75216;SDS011;63800;51.972;5.682;2023-05-10T09:40:18;13.73;;;8.43;;
75216;SDS011;63800;51.972;5.682;2023-05-10T09:42:52;15.55;;;8.38;;
75216;SDS011;63800;51.972;5.682;2023-05-10T09:45:22;18.45;;;8.90;;
75216;SDS011;63800;51.972;5.682;2023-05-10T09:47:48;14.98;;;8.57;;
75216;SDS011;63800;51.972;5.682;2023-05-10T09:50:14;14.02;;;7.93;;
75216;SDS011;63800;51.972;5.682;2023-05-10T09:52:50;16.65;;;8.55;;
75216;SDS011;63800;51.972;5.682;2023-05-10T09:55:19;17.65;;;9.30;;
75216;SDS011;63800;51.972;5.682;2023-05-10T09:57:47;15.30;;;8.43;;
75216;SDS011;63800;51.972;5.682;2023-05-10T10:00:17;15.75;;;8.05;;
75216;SDS011;63800;51.972;5.682;2023-05-10T10:02:47;14.02;;;7.32;;
75216;SDS011;63800;51.972;5.682;2023-05-10T10:05:19;16.15;;;8.48;;
75216;SDS011;63800;51.972;5.682;2023-05-10T10:07:45;14.75;;;8.60;;
75216;SDS011;63800;51.972;5.682;2023-05-10T10:10:10;17.27;;;8.48;;
75216;SDS011;63800;51.972;5.682;2023-05-10T10:12:37;13.23;;;7.95;;
75216;SDS011;63800;51.972;5.682;2023-05-10T10:15:04;16.58;;;8.32;;
75216;SDS011;63800;51.972;5.682;2023-05-10T10:17:31;14.45;;;8.05;;
75216;SDS011;63800;51.972;5.682;2023-05-10T10:20:00;16.20;;;8.18;;
75216;SDS011;63800;51.972;5.682;2023-05-10T10:22:28;13.65;;;7.70;;
75216;SDS011;63800;51.972;5.682;2023-05-10T10:24:53;14.98;;;8.02;;
75216;SDS011;63800;51.972;5.682;2023-05-10T10:27:22;13.88;;;7.45;;
75216;SDS011;63800;51.972;5.682;2023-05-10T10:29:55;14.52;;;7.88;;
75216;SDS011;63800;51.972;5.682;2023-05-10T10:32:42;13.80;;;8.00;;
75216;SDS011;63800;51.972;5.682;2023-05-10T10:35:45;15.20;;;8.20;;
75216;SDS011;63800;51.972;5.682;2023-05-10T10:38:12;15.48;;;8.13;;
75216;SDS011;63800;51.972;5.682;2023-05-10T10:40:38;14.70;;;8.40;;
75216;SDS011;63800;51.972;5.682;2023-05-10T10:48:38;17.80;;;8.70;;
75216;SDS011;63800;51.972;5.682;2023-05-10T10:51:03;13.55;;;8.45;;
75216;SDS011;63800;51.972;5.682;2023-05-10T10:53:29;16.50;;;8.85;;
75216;SDS011;63800;51.972;5.682;2023-05-10T10:56:07;15.52;;;8.52;;
75216;SDS011;63800;51.972;5.682;2023-05-10T10:58:34;16.60;;;9.07;;
75216;SDS011;63800;51.972;5.682;2023-05-10T11:06:44;14.55;;;7.93;;
75216;SDS011;63800;51.972;5.682;2023-05-10T11:09:10;13.82;;;8.40;;
75216;SDS011;63800;51.972;5.682;2023-05-10T11:12:10;14.40;;;8.32;;
75216;SDS011;63800;51.972;5.682;2023-05-10T11:14:33;13.63;;;8.05;;
75216;SDS011;63800;51.972;5.682;2023-05-10T11:16:58;14.52;;;8.88;;
75216;SDS011;63800;51.972;5.682;2023-05-10T11:19:23;15.85;;;8.40;;
75216;SDS011;63800;51.972;5.682;2023-05-10T11:24:30;15.80;;;9.05;;
75216;SDS011;63800;51.972;5.682;2023-05-10T11:26:55;14.85;;;8.60;;
75216;SDS011;63800;51.972;5.682;2023-05-10T11:29:21;14.13;;;8.63;;
75216;SDS011;63800;51.972;5.682;2023-05-10T11:31:47;15.85;;;9.18;;
75216;SDS011;63800;51.972;5.682;2023-05-10T11:34:26;15.00;;;8.95;;
75216;SDS011;63800;51.972;5.682;2023-05-10T11:36:55;14.00;;;8.55;;
75216;SDS011;63800;51.972;5.682;2023-05-10T11:39:21;12.27;;;7.38;;
75216;SDS011;63800;51.972;5.682;2023-05-10T11:41:50;14.90;;;8.00;;
75216;SDS011;63800;51.972;5.682;2023-05-10T11:44:15;12.60;;;7.60;;
75216;SDS011;63800;51.972;5.682;2023-05-10T11:46:41;12.00;;;7.35;;
75216;SDS011;63800;51.972;5.682;2023-05-10T11:49:07;13.48;;;7.38;;
75216;SDS011;63800;51.972;5.682;2023-05-10T11:51:35;10.60;;;6.72;;
75216;SDS011;63800;51.972;5.682;2023-05-10T11:54:05;9.65;;;6.07;;
75216;SDS011;63800;51.972;5.682;2023-05-10T11:56:33;12.70;;;7.53;;
75216;SDS011;63800;51.972;5.682;2023-05-10T11:58:58;13.80;;;7.60;;
75216;SDS011;63800;51.972;5.682;2023-05-10T12:01:27;12.20;;;6.85;;
75216;SDS011;63800;51.972;5.682;2023-05-10T12:03:54;10.07;;;6.72;;
75216;SDS011;63800;51.972;5.682;2023-05-10T12:06:26;11.90;;;6.57;;
75216;SDS011;63800;51.972;5.682;2023-05-10T12:08:54;12.48;;;7.13;;
75216;SDS011;63800;51.972;5.682;2023-05-10T12:11:19;12.40;;;7.47;;
75216;SDS011;63800;51.972;5.682;2023-05-10T12:13:47;11.82;;;7.05;;
75216;SDS011;63800;51.972;5.682;2023-05-10T12:16:17;10.35;;;6.75;;
75216;SDS011;63800;51.972;5.682;2023-05-10T12:18:44;8.65;;;6.07;;
75216;SDS011;63800;51.972;5.682;2023-05-10T12:21:11;10.27;;;6.85;;
75216;SDS011;63800;51.972;5.682;2023-05-10T12:23:37;9.93;;;6.50;;
75216;SDS011;63800;51.972;5.682;2023-05-10T12:26:03;10.68;;;6.85;;
75216;SDS011;63800;51.972;5.682;2023-05-10T12:28:32;11.93;;;8.05;;
75216;SDS011;63800;51.972;5.682;2023-05-10T12:31:02;10.95;;;6.22;;
75216;SDS011;63800;51.972;5.682;2023-05-10T12:33:34;9.68;;;5.93;;
75216;SDS011;63800;51.972;5.682;2023-05-10T12:36:03;9.95;;;5.95;;
75216;SDS011;63800;51.972;5.682;2023-05-10T12:38:32;9.85;;;6.10;;
75216;SDS011;63800;51.972;5.682;2023-05-10T12:41:00;9.98;;;6.28;;
75216;SDS011;63800;51.972;5.682;2023-05-10T12:43:28;10.90;;;6.63;;
75216;SDS011;63800;51.972;5.682;2023-05-10T12:45:54;10.40;;;6.57;;
75216;SDS011;63800;51.972;5.682;2023-05-10T12:48:19;10.20;;;6.40;;
75216;SDS011;63800;51.972;5.682;2023-05-10T12:50:45;10.73;;;6.07;;
75216;SDS011;63800;51.972;5.682;2023-05-10T12:53:10;9.45;;;5.97;;
75216;SDS011;63800;51.972;5.682;2023-05-10T12:55:38;10.40;;;6.18;;
75216;SDS011;63800;51.972;5.682;2023-05-10T12:58:04;11.07;;;6.63;;
75216;SDS011;63800;51.972;5.682;2023-05-10T13:00:30;11.38;;;7.35;;
75216;SDS011;63800;51.972;5.682;2023-05-10T13:02:55;11.05;;;7.07;;
75216;SDS011;63800;51.972;5.682;2023-05-10T13:05:21;10.13;;;6.57;;
75216;SDS011;63800;51.972;5.682;2023-05-10T13:07:46;11.63;;;8.48;;
75216;SDS011;63800;51.972;5.682;2023-05-10T13:10:12;14.77;;;9.50;;
75216;SDS011;63800;51.972;5.682;2023-05-10T13:12:37;13.85;;;9.55;;
75216;SDS011;63800;51.972;5.682;2023-05-10T13:15:02;11.57;;;9.48;;
75216;SDS011;63800;51.972;5.682;2023-05-10T13:17:28;16.85;;;11.70;;
75216;SDS011;63800;51.972;5.682;2023-05-10T13:19:54;15.00;;;11.07;;
75216;SDS011;63800;51.972;5.682;2023-05-10T13:22:20;16.10;;;11.25;;
75216;SDS011;63800;51.972;5.682;2023-05-10T13:24:45;15.23;;;10.77;;
75216;SDS011;63800;51.972;5.682;2023-05-10T13:27:10;14.93;;;10.55;;
75216;SDS011;63800;51.972;5.682;2023-05-10T13:29:36;14.80;;;10.70;;
75216;SDS011;63800;51.972;5.682;2023-05-10T13:32:01;14.50;;;10.50;;
75216;SDS011;63800;51.972;5.682;2023-05-10T13:34:27;14.60;;;10.98;;
75216;SDS011;63800;51.972;5.682;2023-05-10T13:36:53;18.23;;;11.95;;
75216;SDS011;63800;51.972;5.682;2023-05-10T13:39:19;18.75;;;12.35;;
75216;SDS011;63800;51.972;5.682;2023-05-10T13:41:45;20.90;;;13.55;;
75216;SDS011;63800;51.972;5.682;2023-05-10T13:44:12;21.00;;;13.95;;
75216;SDS011;63800;51.972;5.682;2023-05-10T13:46:38;20.70;;;14.02;;
75216;SDS011;63800;51.972;5.682;2023-05-10T13:49:04;19.50;;;13.98;;
75216;SDS011;63800;51.972;5.682;2023-05-10T13:51:29;21.77;;;14.13;;
75216;SDS011;63800;51.972;5.682;2023-05-10T13:53:56;22.77;;;15.13;;
75216;SDS011;63800;51.972;5.682;2023-05-10T13:56:22;21.42;;;13.88;;
75216;SDS011;63800;51.972;5.682;2023-05-10T13:58:47;19.13;;;12.77;;
75216;SDS011;63800;51.972;5.682;2023-05-10T14:01:13;12.75;;;8.98;;
75216;SDS011;63800;51.972;5.682;2023-05-10T14:03:38;9.43;;;6.38;;
75216;SDS011;63800;51.972;5.682;2023-05-10T14:06:04;8.30;;;6.38;;
75216;SDS011;63800;51.972;5.682;2023-05-10T14:08:29;8.63;;;5.97;;
75216;SDS011;63800;51.972;5.682;2023-05-10T14:10:55;9.02;;;5.85;;
75216;SDS011;63800;51.972;5.682;2023-05-10T14:13:21;10.65;;;6.50;;
75216;SDS011;63800;51.972;5.682;2023-05-10T14:15:47;9.68;;;6.75;;
75216;SDS011;63800;51.972;5.682;2023-05-10T14:18:12;10.90;;;7.50;;
75216;SDS011;63800;51.972;5.682;2023-05-10T14:20:38;12.10;;;8.32;;
75216;SDS011;63800;51.972;5.682;2023-05-10T14:23:03;10.65;;;8.10;;
75216;SDS011;63800;51.972;5.682;2023-05-10T14:25:29;12.30;;;8.90;;
75216;SDS011;63800;51.972;5.682;2023-05-10T14:27:54;12.73;;;8.57;;
75216;SDS011;63800;51.972;5.682;2023-05-10T14:30:20;10.13;;;7.57;;
75216;SDS011;63800;51.972;5.682;2023-05-10T14:32:45;11.35;;;8.20;;
75216;SDS011;63800;51.972;5.682;2023-05-10T14:35:11;11.23;;;7.50;;
75216;SDS011;63800;51.972;5.682;2023-05-10T14:37:37;12.98;;;7.20;;
75216;SDS011;63800;51.972;5.682;2023-05-10T14:40:03;11.60;;;7.80;;
75216;SDS011;63800;51.972;5.682;2023-05-10T14:42:29;10.10;;;6.57;;
75216;SDS011;63800;51.972;5.682;2023-05-10T14:44:56;9.95;;;6.28;;
75216;SDS011;63800;51.972;5.682;2023-05-10T14:47:21;7.90;;;5.88;;
75216;SDS011;63800;51.972;5.682;2023-05-10T14:49:47;8.35;;;5.18;;
75216;SDS011;63800;51.972;5.682;2023-05-10T14:52:12;13.32;;;7.55;;
75216;SDS011;63800;51.972;5.682;2023-05-10T14:54:39;6.50;;;5.00;;
75216;SDS011;63800;51.972;5.682;2023-05-10T14:57:05;8.30;;;5.35;;
75216;SDS011;63800;51.972;5.682;2023-05-10T14:59:31;9.82;;;6.93;;
75216;SDS011;63800;51.972;5.682;2023-05-10T15:01:56;12.13;;;6.68;;
75216;SDS011;63800;51.972;5.682;2023-05-10T15:04:22;7.82;;;5.55;;
75216;SDS011;63800;51.972;5.682;2023-05-10T15:06:47;8.75;;;5.30;;